Time;durP1;ratioP1;P1;durP2;ratioP2;P2;SDS_P1;SDS_P2;PMS_P1;PMS_P2;Temp;Humidity;BMP_temperature;BMP_pressure;BME280_temperature;BME280_humidity;BME280_pressure;Samples;Min_cycle;Max_cycle;Signal;HPM_P1;HPM_P2
2024/01/12 00:01:20;;;;;;;;;27.50;27.00;;;;;1.18;73.87;102666.31;5133158;27;45386;-77
2024/01/12 00:03:46;;;;;;;;;25.50;22.50;;;;;1.22;73.93;102674.19;5120778;27;45241;-77
2024/01/12 00:06:11;;;;;;;;;24.25;20.25;;;;;1.27;74.22;102675.16;5120367;27;45303;-79
2024/01/12 00:08:37;;;;;;;;;25.50;18.50;;;;;1.18;74.70;102660.19;5120413;27;45360;-81
2024/01/12 00:11:03;;;;;;;;;23.50;21.25;;;;;1.35;73.80;102676.16;5121167;27;45310;-80
2024/01/12 00:13:28;;;;;;;;;24.00;23.00;;;;;1.43;73.47;102685.00;5120953;27;45324;-78
2024/01/12 00:15:54;;;;;;;;;22.75;20.25;;;;;1.42;74.27;102676.25;5120231;27;45890;-79
2024/01/12 00:18:19;;;;;;;;;23.75;18.50;;;;;1.46;73.87;102693.81;5120266;27;45321;-79
2024/01/12 00:20:45;;;;;;;;;23.75;20.25;;;;;1.50;73.39;102679.00;5120366;27;45247;-78
2024/01/12 00:23:10;;;;;;;;;29.50;24.50;;;;;1.60;73.02;102680.91;5120473;27;45531;-79
2024/01/12 00:25:36;;;;;;;;;25.50;23.75;;;;;1.56;73.62;102672.94;5120125;27;46355;-77
2024/01/12 00:28:01;;;;;;;;;28.75;26.75;;;;;1.64;73.12;102687.06;5134059;27;45498;-77
2024/01/12 00:30:27;;;;;;;;;25.25;16.50;;;;;1.60;73.13;102680.03;5141428;27;45820;-78
2024/01/12 00:32:52;;;;;;;;;23.50;23.00;;;;;1.59;73.40;102684.38;5141067;27;45549;-80
2024/01/12 00:35:17;;;;;;;;;27.50;23.00;;;;;1.63;73.16;102673.06;5140750;27;45357;-80
2024/01/12 00:37:42;;;;;;;;;34.50;23.50;;;;;1.77;72.84;102695.13;5133776;27;45488;-80
2024/01/12 00:40:09;;;;;;;;;35.00;26.75;;;;;1.79;73.19;102687.25;5120070;27;45374;-79
2024/01/12 00:42:34;;;;;;;;;27.00;22.75;;;;;1.82;72.75;102689.94;5120278;27;45349;-79
2024/01/12 00:45:00;;;;;;;;;24.00;21.75;;;;;1.83;72.66;102677.72;5120496;27;45493;-78
2024/01/12 00:47:25;;;;;;;;;34.50;26.75;;;;;1.87;73.06;102680.41;5119618;27;45303;-80
2024/01/12 00:49:50;;;;;;;;;30.00;23.00;;;;;1.90;73.24;102684.78;5119958;27;45404;-77
2024/01/12 00:52:16;;;;;;;;;27.50;26.00;;;;;1.79;72.79;102668.91;5119205;27;45396;-79
2024/01/12 00:54:41;;;;;;;;;22.25;18.00;;;;;1.96;72.76;102684.88;5119291;27;46234;-77
2024/01/12 00:57:06;;;;;;;;;33.75;23.00;;;;;1.92;73.30;102683.06;5121236;27;53122;-80
2024/01/12 00:59:32;;;;;;;;;37.00;29.50;;;;;1.96;73.34;102677.03;5120087;27;45341;-79
2024/01/12 01:01:58;;;;;;;;;26.50;23.00;;;;;1.92;72.46;102672.56;5130333;27;45373;-78
2024/01/12 01:04:25;;;;;;;;;31.50;24.25;;;;;1.99;72.87;102674.44;5121063;27;46280;-78
2024/01/12 01:06:52;;;;;;;;;30.25;23.50;;;;;1.99;73.40;102672.69;5118219;27;45567;-78
2024/01/12 01:09:17;;;;;;;;;24.00;21.50;;;;;1.92;73.61;102667.31;5118877;27;45541;-80
2024/01/12 01:11:43;;;;;;;;;24.50;23.25;;;;;1.96;73.73;102658.66;5100119;27;45597;-78
2024/01/12 01:14:08;;;;;;;;;25.75;22.50;;;;;1.97;73.93;102649.91;5140021;27;48145;-78
2024/01/12 01:16:33;;;;;;;;;32.75;22.00;;;;;2.02;73.99;102653.47;5119242;27;46227;-80
2024/01/12 01:18:59;;;;;;;;;27.50;23.00;;;;;1.99;73.35;102645.56;5125924;27;45456;-79
2024/01/12 01:21:25;;;;;;;;;30.75;24.00;;;;;2.00;74.11;102644.69;5120214;27;45699;-77
2024/01/12 01:23:51;;;;;;;;;20.50;18.25;;;;;2.05;73.84;102649.13;5139782;27;46366;-80
2024/01/12 01:26:16;;;;;;;;;24.75;24.00;;;;;2.02;74.07;102651.72;5139959;27;45263;-81
2024/01/12 01:28:42;;;;;;;;;33.75;27.25;;;;;2.04;74.37;102651.72;5139912;27;45290;-77
2024/01/12 01:31:07;;;;;;;;;25.75;18.00;;;;;2.06;74.55;102652.63;5138630;27;45372;-78
2024/01/12 01:33:32;;;;;;;;;28.50;21.25;;;;;2.04;74.18;102634.25;5139534;27;46744;-78
2024/01/12 01:35:57;;;;;;;;;32.50;26.25;;;;;2.14;74.35;102647.47;5119261;27;45382;-79
2024/01/12 01:38:23;;;;;;;;;37.50;26.75;;;;;2.09;74.32;102639.56;5119073;27;45291;-79
2024/01/12 01:40:48;;;;;;;;;31.75;28.00;;;;;2.14;74.45;102631.72;5100890;27;45600;-78
2024/01/12 01:43:13;;;;;;;;;30.25;27.00;;;;;2.17;74.31;102643.13;5099510;27;66669;-77
2024/01/12 01:45:39;;;;;;;;;33.00;29.00;;;;;2.11;74.73;102636.94;5118797;27;45326;-79
2024/01/12 01:48:05;;;;;;;;;29.00;27.75;;;;;2.24;74.38;102659.84;5119383;27;45398;-79
2024/01/12 01:50:31;;;;;;;;;26.25;25.25;;;;;2.18;74.40;102650.16;5120322;27;45545;-76
2024/01/12 01:52:58;;;;;;;;;22.50;21.00;;;;;2.20;74.97;102648.41;5118284;27;47738;-81
2024/01/12 01:55:23;;;;;;;;;21.50;20.75;;;;;2.21;74.40;102639.66;5119234;27;45384;-79
2024/01/12 01:57:50;;;;;;;;;34.50;27.25;;;;;2.27;74.77;102650.25;5118948;27;45430;-80
2024/01/12 02:00:17;;;;;;;;;27.25;21.50;;;;;2.36;74.81;102641.59;5119016;27;45269;-80
2024/01/12 02:02:42;;;;;;;;;29.00;23.75;;;;;2.40;75.18;102647.75;5118663;27;45395;-78
2024/01/12 02:05:10;;;;;;;;;21.00;18.00;;;;;2.43;74.63;102640.78;5118577;27;45204;-79
2024/01/12 02:07:38;;;;;;;;;27.00;19.25;;;;;2.44;74.89;102636.41;5119101;27;45421;-77
2024/01/12 02:10:04;;;;;;;;;21.25;21.00;;;;;2.43;74.80;102624.16;5119670;27;45941;-79
2024/01/12 02:12:30;;;;;;;;;23.50;18.00;;;;;2.52;75.29;102629.50;5139014;27;45310;-77
2024/01/12 02:14:56;;;;;;;;;26.50;21.00;;;;;2.58;74.93;102634.81;5138811;27;51151;-80
2024/01/12 02:17:22;;;;;;;;;20.00;18.00;;;;;2.65;75.36;102636.63;5130184;27;45495;-80
2024/01/12 02:19:47;;;;;;;;;17.50;15.50;;;;;2.68;74.47;102631.41;5108405;27;45686;-79
2024/01/12 02:22:12;;;;;;;;;16.75;16.75;;;;;2.71;75.16;102634.03;5125328;27;46404;-78
2024/01/12 02:24:38;;;;;;;;;15.75;14.00;;;;;2.72;75.20;102621.78;5117827;27;45244;-78
2024/01/12 02:27:03;;;;;;;;;20.50;15.75;;;;;2.74;75.28;102617.47;5118772;27;45444;-79
2024/01/12 02:29:28;;;;;;;;;21.25;20.25;;;;;2.80;75.25;102631.50;5128572;27;47431;-79
2024/01/12 02:31:55;;;;;;;;;23.75;21.25;;;;;2.83;75.25;102626.28;5119935;27;45345;-80
2024/01/12 02:34:21;;;;;;;;;23.50;18.75;;;;;2.88;75.00;102623.72;5122883;27;45387;-79
2024/01/12 02:36:46;;;;;;;;;21.50;16.25;;;;;2.86;75.38;102620.16;5139005;27;45475;-79
2024/01/12 02:39:12;;;;;;;;;22.00;17.25;;;;;2.95;74.93;102633.38;5138924;27;45384;-79
2024/01/12 02:41:37;;;;;;;;;18.00;18.00;;;;;2.97;75.08;102629.00;5138907;27;45935;-80
2024/01/12 02:44:02;;;;;;;;;19.25;18.00;;;;;2.99;75.14;102632.53;5123722;27;45475;-77
2024/01/12 02:46:28;;;;;;;;;28.00;21.25;;;;;3.06;74.80;102633.47;5122261;27;45793;-77
2024/01/12 02:48:53;;;;;;;;;25.75;16.75;;;;;2.96;74.56;102614.13;5138770;27;45450;-78
2024/01/12 02:51:18;;;;;;;;;21.50;18.75;;;;;3.03;74.82;102629.06;5137265;27;46017;-78
2024/01/12 02:53:44;;;;;;;;;22.50;19.00;;;;;3.10;74.66;102633.50;5138168;27;53082;-80
2024/01/12 02:56:10;;;;;;;;;21.50;19.50;;;;;3.14;74.90;102634.41;5138745;27;45279;-79
2024/01/12 02:58:36;;;;;;;;;20.75;19.00;;;;;3.16;74.86;102624.78;5138795;27;45640;-80
2024/01/12 03:01:02;;;;;;;;;18.25;16.25;;;;;3.19;75.03;102636.19;5123658;27;46261;-78
2024/01/12 03:03:27;;;;;;;;;19.00;18.50;;;;;3.19;74.48;102630.06;5117742;27;45272;-80
2024/01/12 03:05:53;;;;;;;;;22.00;22.00;;;;;3.09;74.35;102599.31;5117668;27;45306;-78
2024/01/12 03:08:18;;;;;;;;;21.50;16.50;;;;;3.30;74.55;102632.78;5117913;27;46056;-78
2024/01/12 03:10:43;;;;;;;;;23.50;22.00;;;;;3.36;74.32;102632.78;5117281;27;54307;-79
2024/01/12 03:13:08;;;;;;;;;19.00;18.00;;;;;3.35;74.21;102625.78;5117251;27;59074;-79
2024/01/12 03:15:34;;;;;;;;;24.75;19.50;;;;;3.35;74.46;102621.41;5117072;27;45386;-80
2024/01/12 03:17:59;;;;;;;;;40.00;24.25;;;;;3.35;74.30;102626.66;5117749;27;45333;-78
2024/01/12 03:20:24;;;;;;;;;23.25;19.25;;;;;3.40;74.58;102624.94;5117052;27;62582;-79
2024/01/12 03:22:50;;;;;;;;;26.50;21.00;;;;;3.43;74.12;102618.81;5120768;27;45860;-78
2024/01/12 03:25:15;;;;;;;;;29.00;26.50;;;;;3.28;74.52;102595.94;5137615;27;45700;-78
2024/01/12 03:27:41;;;;;;;;;32.50;26.25;;;;;3.40;74.39;102618.81;5119263;27;46378;-77
2024/01/12 03:30:06;;;;;;;;;30.75;29.25;;;;;3.44;74.29;102626.72;5121023;27;45356;-79
2024/01/12 03:32:35;;;;;;;;;45.75;33.25;;;;;3.45;74.22;102630.22;5116760;27;45444;-78
2024/01/12 03:35:00;;;;;;;;;35.00;30.50;;;;;3.43;74.37;102630.22;5117623;27;45336;-79
2024/01/12 03:37:26;;;;;;;;;36.50;32.25;;;;;3.40;74.34;102624.94;5115372;27;45285;-80
2024/01/12 03:39:51;;;;;;;;;23.00;22.75;;;;;3.44;74.05;102621.47;5116323;27;45396;-78
2024/01/12 03:42:17;;;;;;;;;29.00;24.50;;;;;3.50;73.74;102621.47;5116303;27;58751;-79
2024/01/12 03:44:42;;;;;;;;;35.25;29.25;;;;;3.49;74.34;102614.47;5128564;27;45313;-79
2024/01/12 03:47:07;;;;;;;;;35.25;30.00;;;;;3.51;74.01;102617.97;5117732;27;45249;-77
2024/01/12 03:49:33;;;;;;;;;37.00;31.75;;;;;3.54;74.20;102610.13;5126987;27;45450;-81
2024/01/12 03:51:58;;;;;;;;;41.50;29.75;;;;;3.58;74.18;102604.88;5123132;27;45244;-80
2024/01/12 03:54:27;;;;;;;;;40.75;35.75;;;;;3.55;74.15;102598.72;5116610;27;45567;-79
2024/01/12 03:56:52;;;;;;;;;37.50;29.50;;;;;3.55;74.19;102601.34;5115764;27;45510;-78
2024/01/12 03:59:18;;;;;;;;;34.00;33.50;;;;;3.60;74.15;102600.50;5116721;27;45487;-78
2024/01/12 04:01:45;;;;;;;;;33.75;24.50;;;;;3.62;74.14;102602.25;5115305;27;45475;-79
2024/01/12 04:04:10;;;;;;;;;38.50;33.25;;;;;3.61;74.19;102596.97;5145240;27;45289;-76
2024/01/12 04:06:36;;;;;;;;;41.25;37.25;;;;;3.62;73.86;102604.00;5119859;27;45518;-78
2024/01/12 04:09:01;;;;;;;;;42.75;35.00;;;;;3.64;74.13;102608.38;5096940;27;46894;-79
2024/01/12 04:11:26;;;;;;;;;42.00;35.25;;;;;3.61;74.11;102594.34;5116134;27;45429;-80
2024/01/12 04:13:52;;;;;;;;;35.75;34.50;;;;;3.65;74.28;102598.78;5115839;27;45455;-82
2024/01/12 04:16:19;;;;;;;;;34.50;28.50;;;;;3.67;74.07;102599.66;5117019;27;45327;-79
2024/01/12 04:18:44;;;;;;;;;45.50;32.75;;;;;3.70;74.17;102591.78;5132043;27;47470;-76
2024/01/12 04:21:10;;;;;;;;;44.75;38.50;;;;;3.71;73.91;102599.66;5122407;27;45320;-78
2024/01/12 04:23:35;;;;;;;;;31.50;26.50;;;;;3.69;73.87;102595.28;5130962;27;45388;-79
2024/01/12 04:26:00;;;;;;;;;49.00;34.00;;;;;3.70;74.68;102603.19;5125028;27;45373;-81
2024/01/12 04:28:26;;;;;;;;;43.75;35.00;;;;;3.70;74.36;102605.81;5124204;27;47474;-80
2024/01/12 04:30:51;;;;;;;;;45.50;35.00;;;;;3.71;73.84;102598.78;5120144;27;47999;-80
2024/01/12 04:33:16;;;;;;;;;40.75;33.00;;;;;3.69;74.50;102592.66;5114722;27;46046;-78
2024/01/12 04:35:42;;;;;;;;;30.75;30.00;;;;;3.72;74.15;102590.03;5119535;27;57852;-79
2024/01/12 04:38:09;;;;;;;;;55.00;42.25;;;;;3.70;74.46;102589.13;5119748;27;46576;-78
2024/01/12 04:40:35;;;;;;;;;46.75;35.00;;;;;3.71;74.29;102591.78;5117668;27;45445;-80
2024/01/12 04:43:00;;;;;;;;;40.50;36.50;;;;;3.74;74.53;102593.53;5119225;27;45243;-79
2024/01/12 04:45:25;;;;;;;;;41.00;32.50;;;;;3.73;74.68;102591.78;5125406;27;45513;-80
2024/01/12 04:47:50;;;;;;;;;44.75;33.75;;;;;3.74;74.56;102593.53;5126175;27;45413;-80
2024/01/12 04:50:16;;;;;;;;;48.50;38.75;;;;;3.78;74.52;102590.94;5119670;27;63504;-78
2024/01/12 04:52:41;;;;;;;;;43.75;39.00;;;;;3.78;74.09;102584.81;5140906;27;45348;-78
2024/01/12 04:55:07;;;;;;;;;42.75;36.75;;;;;3.83;74.60;102589.19;5140649;27;45322;-81
2024/01/12 04:57:32;;;;;;;;;35.50;29.50;;;;;3.85;74.15;102586.56;5140280;27;45670;-82
2024/01/12 04:59:57;;;;;;;;;37.50;31.50;;;;;3.87;74.37;102587.44;5125118;27;45294;-80
2024/01/12 05:02:23;;;;;;;;;49.50;37.00;;;;;3.95;74.46;102583.09;5122477;27;51409;-80
2024/01/12 05:04:48;;;;;;;;;34.50;29.25;;;;;3.99;74.22;102579.59;5126730;27;45254;-82
2024/01/12 05:07:13;;;;;;;;;37.00;27.75;;;;;3.96;73.14;102565.53;5143247;27;45408;-77
2024/01/12 05:09:39;;;;;;;;;36.00;28.25;;;;;4.03;73.87;102580.47;5144439;27;45360;-77
2024/01/12 05:12:04;;;;;;;;;39.75;30.50;;;;;4.04;73.46;102575.22;5141342;27;50488;-81
2024/01/12 05:14:31;;;;;;;;;38.25;28.75;;;;;4.07;73.59;102577.84;5140582;27;45300;-79
2024/01/12 05:16:57;;;;;;;;;31.00;27.75;;;;;4.12;73.34;102576.09;5126249;27;45515;-79
2024/01/12 05:19:22;;;;;;;;;34.75;29.75;;;;;4.12;73.09;102584.00;5101076;27;45633;-79
2024/01/12 05:21:47;;;;;;;;;42.50;29.75;;;;;4.07;73.05;102567.34;5119593;27;45379;-78
2024/01/12 05:24:13;;;;;;;;;34.50;25.75;;;;;4.06;73.19;102577.84;5120240;27;45420;-81
2024/01/12 05:26:38;;;;;;;;;33.75;28.50;;;;;4.08;73.48;102569.09;5119383;27;45470;-78
2024/01/12 05:29:04;;;;;;;;;35.25;27.00;;;;;4.09;73.30;102567.34;5119065;27;45377;-78
2024/01/12 05:31:29;;;;;;;;;40.00;28.50;;;;;4.11;73.17;102560.31;5119273;27;45321;-79
2024/01/12 05:33:55;;;;;;;;;36.25;31.25;;;;;4.12;73.15;102568.22;5120452;27;45414;-79
2024/01/12 05:36:21;;;;;;;;;26.75;23.75;;;;;4.08;73.22;102578.75;5120054;27;45215;-80
2024/01/12 05:38:46;;;;;;;;;37.25;29.50;;;;;3.95;73.22;102554.13;5120727;27;45295;-80
2024/01/12 05:41:12;;;;;;;;;36.00;27.75;;;;;4.03;73.73;102565.53;5138326;27;56010;-81
2024/01/12 05:43:37;;;;;;;;;29.75;25.00;;;;;3.99;73.39;102553.25;5139722;27;51523;-78
2024/01/12 05:46:03;;;;;;;;;34.75;30.25;;;;;4.07;73.37;102574.34;5139743;27;45924;-80
2024/01/12 05:48:29;;;;;;;;;22.50;19.25;;;;;4.04;73.31;102561.19;5120811;27;45866;-79
2024/01/12 05:50:54;;;;;;;;;35.75;29.00;;;;;4.05;73.24;102566.44;5125456;27;45481;-80
2024/01/12 05:53:25;;;;;;;;;28.50;24.75;;;;;4.13;73.14;102571.72;5119090;27;45472;-77
2024/01/12 05:55:50;;;;;;;;;29.25;24.25;;;;;4.14;72.78;102563.81;5118767;27;45856;-81
2024/01/12 05:58:16;;;;;;;;;40.75;23.75;;;;;4.19;73.01;102570.88;5119142;27;45341;-79
2024/01/12 06:00:42;;;;;;;;;39.25;28.00;;;;;4.20;73.14;102573.50;5118977;27;45516;-80
2024/01/12 06:03:07;;;;;;;;;36.50;27.25;;;;;4.20;72.90;102580.53;5119046;27;45239;-79
2024/01/12 06:05:32;;;;;;;;;33.75;28.25;;;;;4.13;72.61;102569.09;5118565;27;45245;-77
2024/01/12 06:07:57;;;;;;;;;31.50;28.00;;;;;4.22;72.62;102576.13;5119017;27;45359;-79
2024/01/12 06:10:23;;;;;;;;;30.75;28.75;;;;;4.28;72.52;102570.88;5118643;27;45328;-81
2024/01/12 06:12:48;;;;;;;;;31.50;25.25;;;;;4.38;72.77;102583.19;5130024;27;45403;-80
2024/01/12 06:15:13;;;;;;;;;34.50;23.50;;;;;4.37;72.87;102587.56;5117976;27;66253;-78
2024/01/12 06:17:39;;;;;;;;;34.75;27.75;;;;;4.39;72.17;102575.28;5117507;27;45258;-79
2024/01/12 06:20:05;;;;;;;;;40.75;25.50;;;;;4.38;71.97;102584.06;5118499;27;45252;-79
2024/01/12 06:22:30;;;;;;;;;34.75;26.00;;;;;4.37;72.17;102584.06;5100297;27;45619;-80
2024/01/12 06:24:56;;;;;;;;;30.50;23.50;;;;;4.40;72.38;102586.69;5117068;27;45397;-79
2024/01/12 06:27:21;;;;;;;;;27.50;19.25;;;;;4.35;72.37;102578.78;5118711;27;45679;-82
2024/01/12 06:29:46;;;;;;;;;33.75;27.00;;;;;4.30;71.79;102579.66;5118291;27;45801;-82
2024/01/12 06:32:12;;;;;;;;;35.00;25.00;;;;;4.30;72.06;102574.41;5124067;27;45429;-79
2024/01/12 06:34:40;;;;;;;;;27.50;24.25;;;;;4.41;72.45;102593.72;5110457;27;58230;-76
2024/01/12 06:37:05;;;;;;;;;35.50;27.50;;;;;4.41;72.46;102598.97;5118031;27;45392;-80
2024/01/12 06:39:31;;;;;;;;;30.00;23.75;;;;;4.43;72.52;102598.13;5103619;27;45401;-80
2024/01/12 06:41:58;;;;;;;;;35.50;27.50;;;;;4.35;72.22;102576.16;5125115;27;45551;-78
2024/01/12 06:44:23;;;;;;;;;27.25;25.25;;;;;4.42;71.61;102595.47;5117926;27;46074;-78
2024/01/12 06:46:49;;;;;;;;;28.50;23.00;;;;;4.37;72.48;102592.84;5115690;27;45448;-79
2024/01/12 06:49:14;;;;;;;;;36.50;27.75;;;;;4.44;72.31;102599.00;5099581;27;45316;-81
2024/01/12 06:51:39;;;;;;;;;31.50;22.50;;;;;4.46;71.99;102594.63;5117437;27;45362;-81
2024/01/12 06:54:05;;;;;;;;;44.50;32.00;;;;;4.36;72.17;102580.53;5124462;27;45331;-79
2024/01/12 06:56:32;;;;;;;;;30.25;24.25;;;;;4.48;72.16;102595.50;5134623;27;45276;-79
2024/01/12 06:58:58;;;;;;;;;34.75;29.50;;;;;4.37;72.02;102570.88;5117588;27;45794;-79
2024/01/12 07:01:24;;;;;;;;;36.25;35.50;;;;;4.49;71.88;102585.81;5118651;27;45402;-76
2024/01/12 07:03:51;;;;;;;;;35.75;31.00;;;;;4.44;71.77;102583.19;5117905;27;45394;-79
2024/01/12 07:06:17;;;;;;;;;32.00;28.00;;;;;4.49;71.56;102593.72;5117312;27;45297;-78
2024/01/12 07:08:42;;;;;;;;;34.75;25.25;;;;;4.51;71.70;102590.22;5105098;27;45334;-79
2024/01/12 07:11:07;;;;;;;;;33.25;32.00;;;;;4.56;72.13;102598.16;5136183;27;45464;-82
2024/01/12 07:13:33;;;;;;;;;35.25;29.50;;;;;4.59;71.48;102592.88;5122065;27;45443;-79
2024/01/12 07:15:58;;;;;;;;;33.25;30.75;;;;;4.63;71.68;102600.78;5122673;27;45438;-79
2024/01/12 07:18:24;;;;;;;;;38.75;31.50;;;;;4.64;71.12;102591.97;5117693;27;46013;-77
2024/01/12 07:20:50;;;;;;;;;34.75;31.25;;;;;4.60;70.68;102592.88;5118129;27;45428;-81
2024/01/12 07:23:16;;;;;;;;;37.00;30.75;;;;;4.60;71.44;102606.03;5099199;27;46122;-80
2024/01/12 07:25:41;;;;;;;;;42.25;33.25;;;;;4.51;71.45;102600.75;5117636;27;45436;-79
2024/01/12 07:28:07;;;;;;;;;38.25;33.25;;;;;4.51;71.69;102599.88;5098798;27;59649;-81
2024/01/12 07:30:32;;;;;;;;;40.25;33.75;;;;;4.41;71.60;102586.69;5118805;27;45521;-80
2024/01/12 07:32:57;;;;;;;;;43.00;32.25;;;;;4.41;72.62;102597.22;5117959;27;46243;-81
2024/01/12 07:35:23;;;;;;;;;41.25;32.00;;;;;4.42;72.73;102611.28;5118446;27;45502;-79
2024/01/12 07:37:50;;;;;;;;;42.50;31.25;;;;;4.45;72.48;102611.31;5117539;27;45374;-77
2024/01/12 07:40:15;;;;;;;;;37.75;34.25;;;;;4.51;71.83;102606.03;5118057;27;45583;-77
2024/01/12 07:42:41;;;;;;;;;37.25;35.75;;;;;4.56;71.64;102606.06;5118173;27;45717;-80
2024/01/12 07:45:07;;;;;;;;;42.25;37.00;;;;;4.54;71.32;102608.66;5117072;27;45280;-82
2024/01/12 07:47:32;;;;;;;;;30.50;23.75;;;;;4.47;71.46;102599.00;5116221;27;45348;-82
2024/01/12 07:49:58;;;;;;;;;33.75;33.25;;;;;4.48;71.86;102599.88;5098719;27;48794;-81
2024/01/12 07:52:23;;;;;;;;;36.25;31.00;;;;;4.44;71.55;102593.75;5117107;27;54196;-82
2024/01/12 07:54:48;;;;;;;;;43.25;32.00;;;;;4.46;71.77;102607.78;5117321;27;45298;-82
2024/01/12 07:57:14;;;;;;;;;30.75;29.00;;;;;4.46;71.62;102607.78;5116836;27;48058;-84
2024/01/12 07:59:39;;;;;;;;;39.50;27.50;;;;;4.47;71.73;102608.66;5117324;27;45257;-78
2024/01/12 08:02:05;;;;;;;;;35.25;29.25;;;;;4.50;71.35;102604.28;5097229;27;74031;-83
2024/01/12 08:04:30;;;;;;;;;26.75;25.75;;;;;4.55;70.47;102612.16;5116108;27;45448;-78
2024/01/12 08:06:56;;;;;;;;;38.75;28.00;;;;;4.52;70.62;102613.06;5117481;27;45417;-77
2024/01/12 08:09:21;;;;;;;;;30.75;19.75;;;;;4.54;70.75;102599.88;5116874;27;46049;-78
2024/01/12 08:11:46;;;;;;;;;33.00;27.50;;;;;4.51;70.44;102597.25;5120202;27;47380;-78
2024/01/12 08:14:12;;;;;;;;;33.75;28.75;;;;;4.42;70.25;102587.56;5120571;27;45336;-81
2024/01/12 08:16:37;;;;;;;;;33.25;27.75;;;;;4.49;70.65;102597.25;5120478;27;45401;-79
2024/01/12 08:19:02;;;;;;;;;10.25;9.50;;;;;4.46;70.87;102589.34;5120106;27;51603;-80
2024/01/12 08:21:28;;;;;;;;;35.25;24.50;;;;;4.43;70.36;102592.88;5120613;27;45561;-79
2024/01/12 08:23:54;;;;;;;;;25.75;25.75;;;;;4.50;70.63;102593.72;5120395;27;45444;-77
2024/01/12 08:26:19;;;;;;;;;17.50;14.50;;;;;4.45;69.78;102590.22;5120410;27;45503;-79
2024/01/12 08:28:45;;;;;;;;;27.25;22.75;;;;;4.53;69.98;102600.75;5120450;27;45443;-79
2024/01/12 08:31:11;;;;;;;;;26.00;21.25;;;;;4.53;69.53;102593.72;5120059;27;46512;-77
2024/01/12 08:33:37;;;;;;;;;28.75;24.75;;;;;4.57;69.85;102592.88;5101600;27;45276;-77
2024/01/12 08:36:03;;;;;;;;;35.75;28.00;;;;;4.62;70.34;102592.88;5120122;27;45218;-80
2024/01/12 08:38:29;;;;;;;;;29.25;25.75;;;;;4.60;70.21;102595.50;5120513;27;45542;-80
2024/01/12 08:40:55;;;;;;;;;31.25;25.00;;;;;4.57;69.61;102589.38;5120493;27;45945;-81
2024/01/12 08:43:20;;;;;;;;;27.75;26.25;;;;;4.63;69.88;102603.41;5120013;27;45337;-78
2024/01/12 08:45:46;;;;;;;;;26.00;21.00;;;;;4.66;69.76;102606.03;5119980;27;45845;-80
2024/01/12 08:48:11;;;;;;;;;27.50;24.75;;;;;4.60;69.76;102579.69;5120119;27;45489;-79
2024/01/12 08:50:37;;;;;;;;;20.75;19.75;;;;;4.77;69.88;102603.41;5119745;27;46019;-79
2024/01/12 08:53:03;;;;;;;;;34.50;26.75;;;;;4.76;69.55;102598.13;5119729;27;45379;-78
2024/01/12 08:55:28;;;;;;;;;28.75;21.00;;;;;4.75;70.14;102594.63;5120274;27;45484;-79
2024/01/12 08:57:53;;;;;;;;;17.50;14.75;;;;;4.79;69.23;102608.66;5120041;27;45315;-83
2024/01/12 09:00:19;;;;;;;;;39.50;25.50;;;;;4.77;69.63;102602.53;5118960;27;65652;-78
2024/01/12 09:02:44;;;;;;;;;39.50;31.75;;;;;4.86;68.91;102602.53;5119764;27;45375;-78
2024/01/12 09:05:11;;;;;;;;;36.00;28.25;;;;;4.84;68.79;102605.19;5119879;27;45333;-78
2024/01/12 09:07:36;;;;;;;;;28.00;27.50;;;;;4.70;68.61;102599.91;5120084;27;45339;-81
2024/01/12 09:10:02;;;;;;;;;25.50;24.00;;;;;4.72;68.98;102621.88;5119394;27;46562;-77
2024/01/12 09:12:28;;;;;;;;;31.50;29.50;;;;;4.74;68.77;102620.09;5119717;27;45348;-78
2024/01/12 09:14:53;;;;;;;;;33.25;31.00;;;;;4.76;69.27;102621.84;5119616;27;45303;-76
2024/01/12 09:17:19;;;;;;;;;35.25;27.50;;;;;4.80;68.99;102618.34;5119227;27;45472;-79
2024/01/12 09:19:44;;;;;;;;;35.75;30.00;;;;;4.72;68.63;102606.06;5119135;27;46384;-79
2024/01/12 09:22:11;;;;;;;;;39.50;29.75;;;;;4.84;68.88;102625.38;5118577;27;45397;-78
2024/01/12 09:24:36;;;;;;;;;41.75;34.75;;;;;4.78;69.38;102623.59;5119256;27;45356;-78
2024/01/12 09:27:02;;;;;;;;;35.50;30.00;;;;;4.82;68.87;102630.66;5119766;27;45544;-80
2024/01/12 09:29:27;;;;;;;;;43.75;33.25;;;;;4.77;68.97;102623.63;5119184;27;45440;-78
2024/01/12 09:31:52;;;;;;;;;39.00;31.25;;;;;4.77;68.34;102634.16;5118751;27;63765;-79
2024/01/12 09:34:18;;;;;;;;;44.75;38.75;;;;;4.78;69.19;102631.53;5119004;27;48658;-77
2024/01/12 09:36:43;;;;;;;;;40.75;33.25;;;;;4.75;68.23;102636.78;5119224;27;45429;-77
2024/01/12 09:39:14;;;;;;;;;31.25;29.50;;;;;4.67;68.47;102644.69;5118528;27;53174;-80
2024/01/12 09:41:47;;;;;;;;;43.50;34.25;;;;;4.71;69.30;102635.94;5119081;27;45330;-77
2024/01/12 09:44:19;;;;;;;;;38.75;33.25;;;;;4.79;69.02;102645.56;5117895;27;45327;-78
2024/01/12 09:46:54;;;;;;;;;42.50;31.50;;;;;4.64;68.51;102636.78;5118855;27;45508;-79
2024/01/12 09:49:21;;;;;;;;;48.75;37.25;;;;;4.73;68.62;102649.09;5118944;27;45402;-81
2024/01/12 09:51:46;;;;;;;;;49.00;39.75;;;;;4.66;68.37;102650.84;5119073;27;45298;-81
2024/01/12 09:54:12;;;;;;;;;46.75;40.75;;;;;4.63;69.38;102647.31;5119486;27;45321;-82
2024/01/12 09:56:38;;;;;;;;;49.50;32.25;;;;;4.58;68.23;102652.59;5119684;27;45329;-81
2024/01/12 09:59:05;;;;;;;;;43.75;36.50;;;;;4.70;68.31;102660.53;5119757;27;45354;-82
2024/01/12 10:01:32;;;;;;;;;40.25;33.25;;;;;4.63;67.99;102648.22;5119311;27;45489;-78
2024/01/12 10:03:57;;;;;;;;;40.25;32.25;;;;;4.55;67.90;102656.97;5118787;27;45325;-82
2024/01/12 10:06:22;;;;;;;;;52.50;38.00;;;;;4.56;68.31;102667.53;5118822;27;45517;-77
2024/01/12 10:08:48;;;;;;;;;40.00;36.25;;;;;4.60;67.68;102660.50;5118221;27;57388;-80
2024/01/12 10:11:13;;;;;;;;;37.00;26.75;;;;;4.56;67.93;102657.00;5099904;27;45334;-79
2024/01/12 10:13:38;;;;;;;;;48.75;37.50;;;;;4.63;67.30;102664.03;5118206;27;55190;-80
2024/01/12 10:16:05;;;;;;;;;45.00;38.50;;;;;4.52;68.12;102659.59;5118364;27;56217;-81
2024/01/12 10:18:30;;;;;;;;;45.25;36.75;;;;;4.62;67.62;102677.19;5118981;27;45931;-79
2024/01/12 10:20:56;;;;;;;;;34.25;32.25;;;;;4.54;67.51;102661.34;5119038;27;45284;-82
2024/01/12 10:23:22;;;;;;;;;47.00;36.75;;;;;4.70;67.62;102678.97;5119165;27;51794;-82
2024/01/12 10:25:57;;;;;;;;;44.50;37.00;;;;;4.73;67.42;102676.34;5120829;27;45208;-79
2024/01/12 10:28:23;;;;;;;;;43.00;35.75;;;;;4.84;66.75;102683.38;5119685;27;45374;-79
2024/01/12 10:30:48;;;;;;;;;50.50;40.50;;;;;4.84;66.41;102683.38;5118726;27;45193;-79
2024/01/12 10:33:17;;;;;;;;;46.75;35.25;;;;;4.70;66.94;102668.44;5117448;27;45256;-79
2024/01/12 10:35:47;;;;;;;;;31.75;29.00;;;;;4.83;67.10;102681.63;5118421;27;45542;-83
2024/01/12 10:38:14;;;;;;;;;41.50;30.25;;;;;4.85;65.93;102679.88;5117942;27;46097;-78
2024/01/12 10:40:41;;;;;;;;;36.50;34.00;;;;;4.71;67.00;102682.50;5118163;27;45426;-79
2024/01/12 10:43:11;;;;;;;;;42.75;38.25;;;;;4.66;66.34;102677.19;5118618;27;45487;-81
2024/01/12 10:45:41;;;;;;;;;35.25;32.50;;;;;4.64;66.34;102665.78;5118795;27;45453;-78
2024/01/12 10:48:10;;;;;;;;;53.75;42.50;;;;;4.81;66.50;102672.81;5099796;27;47136;-81
2024/01/12 10:50:42;;;;;;;;;40.00;35.25;;;;;4.86;66.05;102663.16;5118385;27;45326;-80
2024/01/12 10:53:20;;;;;;;;;43.75;38.25;;;;;4.92;65.95;102663.16;5118042;27;45400;-77
2024/01/12 10:55:54;;;;;;;;;45.75;39.50;;;;;4.92;65.05;102671.06;5099628;27;45274;-81
2024/01/12 10:58:21;;;;;;;;;42.00;31.00;;;;;4.91;65.62;102664.91;5098812;27;47121;-79
2024/01/12 11:00:47;;;;;;;;;44.75;37.25;;;;;4.90;64.95;102664.91;5117644;27;45269;-79
2024/01/12 11:03:15;;;;;;;;;44.75;37.25;;;;;4.90;64.90;102667.56;5118158;27;45777;-81
2024/01/12 11:05:43;;;;;;;;;47.00;38.50;;;;;4.74;64.45;102654.38;5118037;27;45430;-79
2024/01/12 11:08:10;;;;;;;;;45.50;37.75;;;;;4.82;64.64;102658.75;5118046;27;46191;-80
2024/01/12 11:10:41;;;;;;;;;44.00;39.00;;;;;4.84;64.40;102663.19;5117906;27;45611;-81